map of UKB home
UKB - Airport
Location
City:  Kobe, Hyogo, Japan
Name:Kobe Airport
ICAO:RJBE
IATA:UKB

Details
Type:Airport (Aerodrome, Airfield)
Use:Public/Civil
Latitude:3437'58"N (34.632778)
Longitude:13513'26"E (135.223889)
Datum:WGS 1984
Elevation:22 ft (7 m)
Variation:7.71W (WMM2015 magnetic declination)
-0.07 annual change
Runways:1
Longest:8202 × 200 ft (2500 × 61 m), paved

Time
Time Zone:UTC+9
Local Time:

Weather
METAR:RJBE 210100Z VRB02KT 9999 FEW025 BKN/// 13/07 Q1025

Related Locations
Nearby:
Farthest:SSMT: 12008 mi / 19325 km
Mostardas, RS, BR

Find:

   beyond  
but within

Other Information
Maps:
NOTAMs:
Links:
Sources:

  
  • flag of Japan
  • flag of Hyogo
  • flag of Kobe
  

Sectional Chart

Flight Planning
at skyvector.com

Satellite Image

Google Maps Satellite view

 

Copyright © 2004-2018 Karl L. Swartz. All rights reserved.
The Great Circle Mapper name and logo are trademarks of the Great Circle Mapper.
All other trademarks mentioned herein belong to their respective owners.
Please see credits for attibutions and further copyright information.

  Follow gcmap on Facebook Follow gcmap on Twitter Follow gcmap on Google+ GCmap on LinkedIn

hCard Microformat

Geo Microformat